Ohiowa, NE

3:05 AM CDT on August 25, 2016 (GMT -0500)
APRSWXNET | | Change Station

Elev 1804 ft 40.52 °N, 97.60 °W | Updated 22 minutes ago

Overcast
Overcast
59 °F
Feels Like 59 °F
N
2
Wind Variable Wind from North
Gusts 2.0 mph

Today
High -- | Low -- °F
--% Chance of Precip.
Yesterday
High -- | Low -- °F
Precip. -- in
Pressure 30.10 in
Visibility 10.0 miles
Clouds Overcast 7500 ft
Dew Point 55 °F
Humidity 87%
Rainfall in
Snow Depth Not available.
6:50 AM 8:11 PM
Waning Gibbous, 48% visible
METAR KHJH 250755Z AUTO 00000KT 10SM OVC075 16/14 A3010 RMK AO2 T01610144
Pressure 30.10 in
Visibility 10.0 miles
Clouds Overcast 7500 ft
Dew Point 55 °F
Humidity 87%
Rainfall in
Snow Depth Not available.
6:50 AM 8:11 PM
Waning Gibbous, 48% visible
METAR KHJH 250755Z AUTO 00000KT 10SM OVC075 16/14 A3010 RMK AO2 T01610144

10-Day Weather Forecast

Almanac

Astronomy

Aug. 25, 2016 Rise Set
Actual Time
Civil Twilight
Nautical Twilight
Astronomical Twilight
Moon
Length of Visible Light
Length of Day
Tomorrow will be .
, % of the Moon is Illuminated

Today's Extremes

State Highs State Lows

Community

WunderPhotos

Upload Photos

1,934,814 photos uploaded!

WunderBlog® & News

Nearby

Air Quality

  Air Quality AQ Index Pollutant
Not available.

Snow Depth

Station Depth Elevation

Earthquake Activity

City Distance Mag. Time & Date
Minimum magnitude displayed is 2.5.

Coastal Water Temperatures

Place Temperature

Stations

Nearby Weather Stations

Station Location Temp. Windchill Dew Point Humidity Wind Precip. Elev Updated Type
                   

Watches & Warnings

There are currently no watches in effect.